LVMGN SADF-SAZM
Flight info
| Callsign | LVMGN |
|---|---|
| Flight time | 0h 53m |
| Altitude | 28000 |
| Route | PTA DCT GBE/N0276F230 W29 VOTRA VOTRA1Q |
| Aircraft | SF50/L-SDGRWY/L |
Departure
| Time | 2026-04-25 18:10 |
|---|---|
| Airport | San Fernando Airport (SADF) |
Arrival
| Time | 2026-04-25 19:03 |
|---|---|
| Airport | Ástor Piazzola International Airport (SAZM) |
| Time | Latitude | Longitude | Altitude | Speed | Heading |
|---|---|---|---|---|---|
| 2026-04-25 17:56 | -34.45763 | -58.58875 | 18 ft | 0 kts | 17° |
| 2026-04-25 18:05 | -34.45760 | -58.58875 | 18 ft | 3 kts | 338° |
| 2026-04-25 18:05 | -34.45737 | -58.58915 | 18 ft | 8 kts | 249° |
| 2026-04-25 18:05 | -34.45777 | -58.59016 | 18 ft | 17 kts | 244° |
| 2026-04-25 18:06 | -34.45838 | -58.59160 | 18 ft | 19 kts | 243° |
| 2026-04-25 18:06 | -34.45897 | -58.59296 | 18 ft | 15 kts | 242° |
| 2026-04-25 18:06 | -34.45942 | -58.59399 | 18 ft | 11 kts | 244° |
| 2026-04-25 18:06 | -34.45976 | -58.59483 | 18 ft | 11 kts | 243° |
| 2026-04-25 18:07 | -34.46001 | -58.59544 | 18 ft | 12 kts | 245° |
| 2026-04-25 18:07 | -34.46024 | -58.59609 | 18 ft | 0 kts | 255° |
| 2026-04-25 18:08 | -34.46017 | -58.59649 | 18 ft | 12 kts | 304° |
| 2026-04-25 18:08 | -34.45956 | -58.59670 | 18 ft | 15 kts | 32° |
| 2026-04-25 18:09 | -34.45932 | -58.59648 | 18 ft | 0 kts | 40° |
| 2026-04-25 18:09 | -34.45920 | -58.59636 | 18 ft | 19 kts | 40° |
| 2026-04-25 18:09 | -34.45634 | -58.59298 | 18 ft | 92 kts | 44° |
| 2026-04-25 18:09 | -34.45459 | -58.59094 | 45 ft | 108 kts | 43° |
| 2026-04-25 18:10 | -34.44662 | -58.58232 | 505 ft | 122 kts | 38° |
| 2026-04-25 18:10 | -34.43753 | -58.57290 | 899 ft | 137 kts | 40° |
| 2026-04-25 18:10 | -34.43002 | -58.56499 | 1186 ft | 147 kts | 39° |
| 2026-04-25 18:10 | -34.42206 | -58.55658 | 1426 ft | 161 kts | 41° |
| 2026-04-25 18:11 | -34.41291 | -58.54719 | 1706 ft | 184 kts | 40° |
| 2026-04-25 18:11 | -34.40252 | -58.53663 | 1999 ft | 204 kts | 40° |
| 2026-04-25 18:11 | -34.39127 | -58.52506 | 2288 ft | 220 kts | 40° |
| 2026-04-25 18:11 | -34.37938 | -58.51252 | 2573 ft | 232 kts | 40° |
| 2026-04-25 18:12 | -34.37177 | -58.50334 | 2742 ft | 240 kts | 54° |
| 2026-04-25 18:12 | -34.36725 | -58.48372 | 3014 ft | 249 kts | 92° |
| 2026-04-25 18:12 | -34.37341 | -58.46444 | 3276 ft | 254 kts | 130° |
| 2026-04-25 18:12 | -34.39384 | -58.45121 | 3631 ft | 257 kts | 174° |
| 2026-04-25 18:13 | -34.41164 | -58.45024 | 3995 ft | 255 kts | 180° |
| 2026-04-25 18:13 | -34.42955 | -58.45025 | 4266 ft | 259 kts | 181° |
| 2026-04-25 18:13 | -34.44141 | -58.45033 | 4470 ft | 259 kts | 181° |
| 2026-04-25 18:14 | -34.47788 | -58.45066 | 5038 ft | 262 kts | 181° |
| 2026-04-25 18:14 | -34.50223 | -58.45091 | 5435 ft | 262 kts | 181° |
| 2026-04-25 18:14 | -34.52055 | -58.45110 | 5741 ft | 262 kts | 181° |
| 2026-04-25 18:14 | -34.53865 | -58.45130 | 6016 ft | 262 kts | 181° |
| 2026-04-25 18:15 | -34.55677 | -58.45149 | 6289 ft | 263 kts | 181° |
| 2026-04-25 18:15 | -34.57515 | -58.45169 | 6568 ft | 263 kts | 181° |
| 2026-04-25 18:15 | -34.59330 | -58.45189 | 6844 ft | 263 kts | 181° |
| 2026-04-25 18:15 | -34.61185 | -58.45209 | 7124 ft | 263 kts | 181° |
| 2026-04-25 18:16 | -34.63021 | -58.45229 | 7395 ft | 263 kts | 181° |
| 2026-04-25 18:16 | -34.64845 | -58.45249 | 7670 ft | 262 kts | 181° |
| 2026-04-25 18:16 | -34.68478 | -58.45289 | 8222 ft | 262 kts | 181° |
| 2026-04-25 18:17 | -34.70296 | -58.45309 | 8496 ft | 262 kts | 181° |
| 2026-04-25 18:17 | -34.71509 | -58.45322 | 8682 ft | 267 kts | 181° |
| 2026-04-25 18:17 | -34.74034 | -58.45350 | 9056 ft | 276 kts | 181° |
| 2026-04-25 18:17 | -34.75948 | -58.45370 | 9399 ft | 278 kts | 181° |
| 2026-04-25 18:18 | -34.77899 | -58.45392 | 9746 ft | 280 kts | 181° |
| 2026-04-25 18:18 | -34.79838 | -58.45413 | 10084 ft | 281 kts | 181° |
| 2026-04-25 18:18 | -34.81786 | -58.45434 | 10416 ft | 282 kts | 181° |
| 2026-04-25 18:18 | -34.83755 | -58.45456 | 10734 ft | 283 kts | 181° |
| 2026-04-25 18:19 | -34.85051 | -58.45470 | 10932 ft | 284 kts | 181° |
| 2026-04-25 18:19 | -34.87678 | -58.45499 | 11324 ft | 286 kts | 181° |
| 2026-04-25 18:19 | -34.89685 | -58.45520 | 11620 ft | 286 kts | 181° |
| 2026-04-25 18:19 | -34.91658 | -58.45542 | 11906 ft | 287 kts | 181° |
| 2026-04-25 18:20 | -34.93658 | -58.45564 | 12189 ft | 287 kts | 182° |
| 2026-04-25 18:20 | -34.94971 | -58.45578 | 12372 ft | 287 kts | 182° |
| 2026-04-25 18:20 | -34.97660 | -58.45608 | 12748 ft | 287 kts | 182° |
| 2026-04-25 18:20 | -34.98983 | -58.45622 | 12931 ft | 287 kts | 182° |
| 2026-04-25 18:21 | -35.00981 | -58.45644 | 13209 ft | 286 kts | 182° |
| 2026-04-25 18:21 | -35.03622 | -58.45673 | 13576 ft | 285 kts | 182° |
| 2026-04-25 18:21 | -35.04921 | -58.45688 | 13755 ft | 284 kts | 182° |
| 2026-04-25 18:21 | -35.07544 | -58.45717 | 14119 ft | 283 kts | 182° |
| 2026-04-25 18:22 | -35.09510 | -58.45738 | 14392 ft | 283 kts | 182° |
| 2026-04-25 18:22 | -35.10166 | -58.45745 | 14484 ft | 282 kts | 182° |
| 2026-04-25 18:22 | -35.13415 | -58.45781 | 14945 ft | 281 kts | 182° |
| 2026-04-25 18:22 | -35.15380 | -58.45803 | 15224 ft | 280 kts | 182° |
| 2026-04-25 18:23 | -35.16655 | -58.45817 | 15405 ft | 280 kts | 182° |
| 2026-04-25 18:23 | -35.19244 | -58.45846 | 15774 ft | 279 kts | 182° |
| 2026-04-25 18:23 | -35.20527 | -58.45860 | 15958 ft | 279 kts | 182° |
| 2026-04-25 18:23 | -35.23098 | -58.45888 | 16328 ft | 278 kts | 182° |
| 2026-04-25 18:24 | -35.25047 | -58.45910 | 16608 ft | 277 kts | 182° |
| 2026-04-25 18:24 | -35.26967 | -58.45931 | 16886 ft | 276 kts | 182° |
| 2026-04-25 18:24 | -35.28255 | -58.45945 | 17072 ft | 276 kts | 183° |
| 2026-04-25 18:24 | -35.30794 | -58.45974 | 17441 ft | 275 kts | 183° |
| 2026-04-25 18:25 | -35.32692 | -58.45995 | 17717 ft | 274 kts | 183° |
| 2026-04-25 18:25 | -35.34592 | -58.46016 | 17995 ft | 273 kts | 183° |
| 2026-04-25 18:25 | -35.36489 | -58.46037 | 18273 ft | 273 kts | 183° |
| 2026-04-25 18:25 | -35.38356 | -58.46057 | 18547 ft | 272 kts | 183° |
| 2026-04-25 18:26 | -35.40248 | -58.46078 | 18825 ft | 271 kts | 183° |
| 2026-04-25 18:26 | -35.42120 | -58.46099 | 19101 ft | 270 kts | 184° |
| 2026-04-25 18:26 | -35.43991 | -58.46120 | 19378 ft | 270 kts | 184° |
| 2026-04-25 18:26 | -35.45857 | -58.46141 | 19655 ft | 269 kts | 184° |
| 2026-04-25 18:27 | -35.47730 | -58.46161 | 19935 ft | 268 kts | 184° |
| 2026-04-25 18:27 | -35.49596 | -58.46182 | 20214 ft | 268 kts | 184° |
| 2026-04-25 18:27 | -35.51454 | -58.46203 | 20491 ft | 267 kts | 184° |
| 2026-04-25 18:27 | -35.53310 | -58.46223 | 20769 ft | 266 kts | 184° |
| 2026-04-25 18:28 | -35.55150 | -58.46244 | 21046 ft | 265 kts | 184° |
| 2026-04-25 18:28 | -35.56984 | -58.46265 | 21323 ft | 265 kts | 184° |
| 2026-04-25 18:28 | -35.58201 | -58.46278 | 21507 ft | 264 kts | 185° |
| 2026-04-25 18:29 | -35.62470 | -58.46326 | 22155 ft | 262 kts | 185° |
| 2026-04-25 18:29 | -35.64296 | -58.46346 | 22434 ft | 262 kts | 185° |
| 2026-04-25 18:30 | -35.69712 | -58.46407 | 23265 ft | 259 kts | 185° |
| 2026-04-25 18:30 | -35.71486 | -58.46426 | 23539 ft | 258 kts | 185° |
| 2026-04-25 18:30 | -35.73290 | -58.46447 | 23819 ft | 258 kts | 186° |
| 2026-04-25 18:30 | -35.75071 | -58.46323 | 24095 ft | 261 kts | 175° |
| 2026-04-25 18:31 | -35.76859 | -58.45837 | 24378 ft | 262 kts | 172° |
| 2026-04-25 18:31 | -35.78603 | -58.45298 | 24654 ft | 261 kts | 171° |
| 2026-04-25 18:31 | -35.79778 | -58.44924 | 24840 ft | 261 kts | 171° |
| 2026-04-25 18:31 | -35.82109 | -58.44172 | 25210 ft | 260 kts | 171° |
| 2026-04-25 18:32 | -35.83853 | -58.43605 | 25489 ft | 259 kts | 171° |
| 2026-04-25 18:32 | -35.85592 | -58.43038 | 25768 ft | 258 kts | 172° |
| 2026-04-25 18:32 | -35.87301 | -58.42480 | 26042 ft | 257 kts | 172° |
| 2026-04-25 18:32 | -35.89033 | -58.41914 | 26324 ft | 256 kts | 172° |
| 2026-04-25 18:33 | -35.90734 | -58.41358 | 26600 ft | 255 kts | 172° |
| 2026-04-25 18:33 | -35.92452 | -58.40796 | 26878 ft | 254 kts | 172° |
| 2026-04-25 18:33 | -35.94128 | -58.40247 | 27152 ft | 253 kts | 172° |
| 2026-04-25 18:33 | -35.95826 | -58.39691 | 27432 ft | 252 kts | 172° |
| 2026-04-25 18:34 | -35.97521 | -58.39136 | 27712 ft | 251 kts | 172° |
| 2026-04-25 18:34 | -35.99192 | -58.38589 | 27950 ft | 251 kts | 172° |
| 2026-04-25 18:34 | -36.00909 | -58.38029 | 27989 ft | 260 kts | 172° |
| 2026-04-25 18:34 | -36.02671 | -58.37453 | 27994 ft | 270 kts | 172° |
| 2026-04-25 18:35 | -36.04523 | -58.36845 | 27996 ft | 278 kts | 172° |
| 2026-04-25 18:35 | -36.06425 | -58.36220 | 27997 ft | 285 kts | 172° |
| 2026-04-25 18:35 | -36.08347 | -58.35588 | 27998 ft | 291 kts | 172° |
| 2026-04-25 18:35 | -36.10311 | -58.34942 | 27998 ft | 296 kts | 171° |
| 2026-04-25 18:36 | -36.12324 | -58.34279 | 27994 ft | 300 kts | 171° |
| 2026-04-25 18:36 | -36.14344 | -58.33614 | 27994 ft | 304 kts | 171° |
| 2026-04-25 18:36 | -36.16389 | -58.32940 | 27993 ft | 307 kts | 171° |
| 2026-04-25 18:36 | -36.18461 | -58.32257 | 27995 ft | 309 kts | 171° |
| 2026-04-25 18:37 | -36.20539 | -58.31572 | 27998 ft | 311 kts | 171° |
| 2026-04-25 18:37 | -36.22624 | -58.30884 | 28001 ft | 313 kts | 171° |
| 2026-04-25 18:37 | -36.26830 | -58.29496 | 28006 ft | 315 kts | 171° |
| 2026-04-25 18:38 | -36.31060 | -58.28097 | 28011 ft | 317 kts | 170° |
| 2026-04-25 18:38 | -36.35324 | -58.26687 | 28014 ft | 318 kts | 170° |
| 2026-04-25 18:39 | -36.39608 | -58.25268 | 28014 ft | 319 kts | 170° |
| 2026-04-25 18:39 | -36.43890 | -58.23849 | 28017 ft | 320 kts | 170° |
| 2026-04-25 18:40 | -36.48201 | -58.22417 | 28018 ft | 321 kts | 170° |
| 2026-04-25 18:40 | -36.52494 | -58.20991 | 28018 ft | 321 kts | 170° |
| 2026-04-25 18:41 | -36.56789 | -58.19562 | 28018 ft | 321 kts | 170° |
| 2026-04-25 18:41 | -36.61099 | -58.18126 | 28018 ft | 321 kts | 170° |
| 2026-04-25 18:42 | -36.63986 | -58.17164 | 28018 ft | 322 kts | 170° |
| 2026-04-25 18:42 | -36.69722 | -58.15249 | 28019 ft | 322 kts | 170° |
| 2026-04-25 18:43 | -36.74039 | -58.13806 | 28019 ft | 322 kts | 170° |
| 2026-04-25 18:43 | -36.77605 | -58.12613 | 28019 ft | 322 kts | 170° |
| 2026-04-25 18:44 | -36.82647 | -58.10924 | 28021 ft | 322 kts | 170° |
| 2026-04-25 18:44 | -36.86968 | -58.09475 | 28028 ft | 322 kts | 170° |
| 2026-04-25 18:45 | -36.91270 | -58.08030 | 28036 ft | 322 kts | 170° |
| 2026-04-25 18:45 | -36.95581 | -58.06581 | 28043 ft | 322 kts | 170° |
| 2026-04-25 18:46 | -36.99906 | -58.05125 | 28046 ft | 322 kts | 170° |
| 2026-04-25 18:46 | -37.04203 | -58.03677 | 28041 ft | 319 kts | 170° |
| 2026-04-25 18:47 | -37.06354 | -58.02991 | 27680 ft | 321 kts | 173° |
| 2026-04-25 18:47 | -37.08540 | -58.02467 | 27307 ft | 322 kts | 175° |
| 2026-04-25 18:47 | -37.10727 | -58.01973 | 26934 ft | 322 kts | 175° |
| 2026-04-25 18:47 | -37.12947 | -58.01473 | 26556 ft | 323 kts | 175° |
| 2026-04-25 18:48 | -37.15151 | -58.00977 | 26177 ft | 322 kts | 175° |
| 2026-04-25 18:48 | -37.17349 | -58.00484 | 25798 ft | 320 kts | 175° |
| 2026-04-25 18:48 | -37.19516 | -57.99997 | 25426 ft | 318 kts | 175° |
| 2026-04-25 18:48 | -37.21679 | -57.99513 | 25052 ft | 317 kts | 175° |
| 2026-04-25 18:49 | -37.23829 | -57.99030 | 24679 ft | 315 kts | 174° |
| 2026-04-25 18:49 | -37.25283 | -57.98704 | 24426 ft | 314 kts | 174° |
| 2026-04-25 18:49 | -37.28113 | -57.98069 | 23931 ft | 313 kts | 174° |
| 2026-04-25 18:49 | -37.29523 | -57.97751 | 23682 ft | 308 kts | 174° |
| 2026-04-25 18:50 | -37.32295 | -57.97127 | 22993 ft | 301 kts | 174° |
| 2026-04-25 18:50 | -37.34336 | -57.96668 | 22474 ft | 296 kts | 174° |
| 2026-04-25 18:50 | -37.36335 | -57.96219 | 21895 ft | 295 kts | 174° |
| 2026-04-25 18:50 | -37.38340 | -57.95768 | 21296 ft | 294 kts | 174° |
| 2026-04-25 18:51 | -37.40346 | -57.95316 | 20694 ft | 292 kts | 174° |
| 2026-04-25 18:51 | -37.41012 | -57.95166 | 20493 ft | 292 kts | 174° |
| 2026-04-25 18:51 | -37.43649 | -57.94571 | 19694 ft | 289 kts | 174° |
| 2026-04-25 18:51 | -37.46253 | -57.93984 | 18897 ft | 286 kts | 173° |
| 2026-04-25 18:52 | -37.48187 | -57.93547 | 18302 ft | 283 kts | 173° |
| 2026-04-25 18:52 | -37.50096 | -57.93115 | 17710 ft | 281 kts | 173° |
| 2026-04-25 18:52 | -37.52008 | -57.92683 | 17106 ft | 279 kts | 173° |
| 2026-04-25 18:52 | -37.53264 | -57.92399 | 16708 ft | 278 kts | 173° |
| 2026-04-25 18:53 | -37.55764 | -57.91836 | 15916 ft | 275 kts | 173° |
| 2026-04-25 18:53 | -37.57643 | -57.91411 | 15308 ft | 273 kts | 173° |
| 2026-04-25 18:53 | -37.59489 | -57.90993 | 14593 ft | 272 kts | 172° |
| 2026-04-25 18:53 | -37.61331 | -57.90576 | 13846 ft | 271 kts | 172° |
| 2026-04-25 18:54 | -37.64997 | -57.89744 | 12339 ft | 266 kts | 172° |
| 2026-04-25 18:54 | -37.66781 | -57.89339 | 11600 ft | 264 kts | 172° |
| 2026-04-25 18:54 | -37.68574 | -57.88932 | 10850 ft | 261 kts | 172° |
| 2026-04-25 18:55 | -37.70329 | -57.88533 | 10106 ft | 259 kts | 172° |
| 2026-04-25 18:55 | -37.72100 | -57.88131 | 9347 ft | 256 kts | 172° |
| 2026-04-25 18:55 | -37.73819 | -57.87740 | 8600 ft | 253 kts | 171° |
| 2026-04-25 18:55 | -37.75512 | -57.87355 | 7855 ft | 250 kts | 171° |
| 2026-04-25 18:56 | -37.77180 | -57.86887 | 7095 ft | 248 kts | 160° |
| 2026-04-25 18:56 | -37.78642 | -57.85789 | 6344 ft | 248 kts | 140° |
| 2026-04-25 18:56 | -37.79404 | -57.84696 | 5843 ft | 248 kts | 129° |
| 2026-04-25 18:56 | -37.80674 | -57.82322 | 4844 ft | 245 kts | 125° |
| 2026-04-25 18:57 | -37.81589 | -57.80529 | 4090 ft | 242 kts | 125° |
| 2026-04-25 18:57 | -37.82493 | -57.78760 | 3333 ft | 240 kts | 125° |
| 2026-04-25 18:57 | -37.83378 | -57.77029 | 2591 ft | 237 kts | 125° |
| 2026-04-25 18:57 | -37.83683 | -57.76455 | 2437 ft | 231 kts | 126° |
| 2026-04-25 18:58 | -37.85001 | -57.73883 | 2322 ft | 191 kts | 124° |
| 2026-04-25 18:58 | -37.86264 | -57.71372 | 2353 ft | 135 kts | 126° |
| 2026-04-25 18:58 | -37.86723 | -57.70470 | 2259 ft | 111 kts | 127° |
| 2026-04-25 18:59 | -37.87358 | -57.69228 | 2053 ft | 93 kts | 127° |
| 2026-04-25 18:59 | -37.88134 | -57.67719 | 1806 ft | 92 kts | 123° |
| 2026-04-25 19:00 | -37.88903 | -57.66202 | 1553 ft | 113 kts | 123° |
| 2026-04-25 19:00 | -37.89196 | -57.65628 | 1450 ft | 118 kts | 123° |
| 2026-04-25 19:01 | -37.90276 | -57.63508 | 1059 ft | 126 kts | 123° |
| 2026-04-25 19:01 | -37.90596 | -57.62880 | 944 ft | 127 kts | 122° |
| 2026-04-25 19:01 | -37.91184 | -57.61727 | 786 ft | 100 kts | 122° |
| 2026-04-25 19:01 | -37.91535 | -57.61039 | 624 ft | 88 kts | 122° |
| 2026-04-25 19:02 | -37.92150 | -57.59824 | 387 ft | 77 kts | 121° |
| 2026-04-25 19:02 | -37.92435 | -57.59259 | 285 ft | 76 kts | 120° |
| 2026-04-25 19:02 | -37.92707 | -57.58704 | 194 ft | 71 kts | 122° |
| 2026-04-25 19:03 | -37.93047 | -57.58046 | 78 ft | 57 kts | 122° |
| 2026-04-25 19:03 | -37.93276 | -57.57603 | 73 ft | 11 kts | 261° |
| 2026-04-25 19:03 | -37.93210 | -57.57738 | 73 ft | 24 kts | 303° |
| 2026-04-25 19:04 | -37.93230 | -57.58066 | 73 ft | 18 kts | 288° |
| 2026-04-25 19:04 | -37.93223 | -57.58094 | 73 ft | 0 kts | 284° |